Time;durP1;ratioP1;P1;durP2;ratioP2;P2;SDS_P1;SDS_P2;PMS_P1;PMS_P2;Temp;Humidity;BMP_temperature;BMP_pressure;BME280_temperature;BME280_humidity;BME280_pressure;Samples;Min_cycle;Max_cycle;Signal;HPM_P1;HPM_P2
2024/01/27 00:01:40;;;;;;;9.52;2.63;;;5.30;99.90;;;;;;4942092;28;20057;-82
2024/01/27 00:04:05;;;;;;;16.38;3.65;;;5.30;99.90;;;;;;4947058;28;20096;-82
2024/01/27 00:06:31;;;;;;;18.95;4.00;;;5.30;99.90;;;;;;4922446;28;20463;-83
2024/01/27 00:08:57;;;;;;;17.95;3.55;;;5.30;99.90;;;;;;4848836;28;20529;-83
2024/01/27 00:11:24;;;;;;;18.33;3.95;;;5.30;99.90;;;;;;4895214;28;20055;-83
2024/01/27 00:13:50;;;;;;;20.70;4.05;;;5.30;99.90;;;;;;4981869;28;20045;-82
2024/01/27 00:16:15;;;;;;;16.92;4.05;;;5.30;99.90;;;;;;4953781;28;20029;-82
2024/01/27 00:18:41;;;;;;;19.30;4.43;;;5.30;99.90;;;;;;4940704;28;20069;-81
2024/01/27 00:21:07;;;;;;;17.90;4.35;;;5.30;99.90;;;;;;4948283;28;20038;-80
2024/01/27 00:23:32;;;;;;;16.10;3.47;;;5.30;99.90;;;;;;4959351;28;20045;-83
2024/01/27 00:25:58;;;;;;;14.18;2.97;;;5.30;99.90;;;;;;4993921;28;20636;-82
2024/01/27 00:28:24;;;;;;;15.13;3.20;;;5.30;99.90;;;;;;4923459;28;20030;-82
2024/01/27 00:30:49;;;;;;;19.42;3.53;;;5.30;99.90;;;;;;4946659;28;20026;-83
2024/01/27 00:33:15;;;;;;;23.65;4.22;;;5.30;99.90;;;;;;4956032;28;20034;-82
2024/01/27 00:35:41;;;;;;;16.63;3.92;;;5.30;99.90;;;;;;4960199;28;20222;-81
2024/01/27 00:38:07;;;;;;;20.15;3.05;;;5.30;99.90;;;;;;4973097;28;20026;-82
2024/01/27 00:40:32;;;;;;;18.02;3.92;;;5.30;99.90;;;;;;4939395;28;20029;-83
2024/01/27 00:42:58;;;;;;;16.88;3.13;;;5.30;99.90;;;;;;4954420;28;20029;-82
2024/01/27 00:45:24;;;;;;;16.10;3.67;;;5.30;99.90;;;;;;4933476;28;20030;-82
2024/01/27 00:47:50;;;;;;;11.15;3.80;;;5.30;99.90;;;;;;4939163;28;20117;-82
2024/01/27 00:50:16;;;;;;;19.85;3.50;;;5.30;99.90;;;;;;4975250;28;20089;-79
2024/01/27 00:52:42;;;;;;;13.15;3.85;;;5.30;99.90;;;;;;4973879;28;20052;-83
2024/01/27 00:55:08;;;;;;;24.20;4.15;;;5.30;99.90;;;;;;4924268;28;20026;-83
2024/01/27 00:57:38;;;;;;;23.50;3.65;;;5.30;99.90;;;;;;4962753;28;20474;-81
2024/01/27 01:00:08;;;;;;;14.00;3.42;;;5.30;99.90;;;;;;4933782;28;20122;-82
2024/01/27 01:02:34;;;;;;;15.43;3.63;;;5.30;99.90;;;;;;4934030;28;20030;-82
2024/01/27 01:05:00;;;;;;;16.77;3.80;;;5.20;99.90;;;;;;4982459;28;20037;-81
2024/01/27 01:07:25;;;;;;;24.13;4.18;;;5.20;99.90;;;;;;4959847;28;20470;-83
2024/01/27 01:09:51;;;;;;;24.65;4.20;;;5.20;99.90;;;;;;4937978;28;20029;-82
2024/01/27 01:12:16;;;;;;;20.92;4.05;;;5.20;99.90;;;;;;4949110;28;20022;-83
2024/01/27 01:14:43;;;;;;;17.60;3.40;;;5.20;99.90;;;;;;4959704;28;20035;-83
2024/01/27 01:17:09;;;;;;;23.70;3.83;;;5.20;99.90;;;;;;4975371;28;20050;-83
2024/01/27 01:19:37;;;;;;;16.95;2.97;;;5.30;99.90;;;;;;4930634;28;20085;-82
2024/01/27 01:22:03;;;;;;;17.23;3.85;;;5.30;99.90;;;;;;4952207;28;20038;-83
2024/01/27 01:24:29;;;;;;;13.55;3.65;;;5.30;99.90;;;;;;4909865;28;20026;-83
2024/01/27 01:26:55;;;;;;;17.10;4.38;;;5.30;99.90;;;;;;4953565;28;20027;-82
2024/01/27 01:29:21;;;;;;;21.30;4.00;;;5.20;99.90;;;;;;4969503;28;20076;-82
2024/01/27 01:31:47;;;;;;;18.50;3.40;;;5.30;99.90;;;;;;4935161;28;20363;-83
2024/01/27 01:34:13;;;;;;;22.20;3.30;;;5.30;99.90;;;;;;4946516;28;20069;-85
2024/01/27 01:36:38;;;;;;;18.83;3.88;;;5.30;99.90;;;;;;4949536;28;20514;-84
2024/01/27 01:39:16;;;;;;;18.85;3.30;;;5.30;99.90;;;;;;4969316;28;20037;-82
2024/01/27 01:41:41;;;;;;;12.13;3.78;;;5.30;99.90;;;;;;4960885;28;20121;-84
2024/01/27 01:44:07;;;;;;;11.55;2.58;;;5.30;99.90;;;;;;4974461;28;20055;-83
2024/01/27 01:46:33;;;;;;;16.83;3.80;;;5.30;99.90;;;;;;4937423;28;20094;-82
2024/01/27 01:49:00;;;;;;;17.27;3.95;;;5.30;99.90;;;;;;4944709;28;20019;-83
2024/01/27 01:51:26;;;;;;;20.42;4.30;;;5.30;99.90;;;;;;4949806;28;20027;-82
2024/01/27 01:53:57;;;;;;;16.05;3.58;;;5.30;99.90;;;;;;4958733;28;20569;-83
2024/01/27 01:56:26;;;;;;;8.55;3.28;;;5.40;99.90;;;;;;4971301;28;20030;-82
2024/01/27 01:58:53;;;;;;;15.02;3.58;;;5.40;99.90;;;;;;4963969;28;20046;-83
2024/01/27 02:01:21;;;;;;;16.80;3.53;;;5.40;99.90;;;;;;4952598;28;20121;-83
2024/01/27 02:03:59;;;;;;;27.65;3.95;;;5.40;99.90;;;;;;4943663;28;20152;-84
2024/01/27 02:06:24;;;;;;;15.77;3.03;;;5.40;99.90;;;;;;4951661;28;20041;-83
2024/01/27 02:08:51;;;;;;;14.40;3.50;;;5.40;99.90;;;;;;4974068;28;21467;-84
2024/01/27 02:11:16;;;;;;;22.15;4.25;;;5.40;99.90;;;;;;4983294;28;20022;-84
2024/01/27 02:13:42;;;;;;;20.35;3.50;;;5.50;99.90;;;;;;4959916;28;20057;-82
2024/01/27 02:16:08;;;;;;;14.48;2.80;;;5.50;99.90;;;;;;4953380;28;20030;-84
2024/01/27 02:18:33;;;;;;;18.17;3.55;;;5.50;99.90;;;;;;4944772;28;20042;-84
2024/01/27 02:20:59;;;;;;;21.42;3.67;;;5.50;99.90;;;;;;4974292;28;20078;-83
2024/01/27 02:23:25;;;;;;;18.27;3.70;;;5.50;99.90;;;;;;4971732;28;20026;-81
2024/01/27 02:25:50;;;;;;;24.63;3.75;;;5.50;99.90;;;;;;4950104;28;20037;-83
2024/01/27 02:28:17;;;;;;;26.45;3.17;;;5.50;99.90;;;;;;4938370;28;20088;-82
2024/01/27 02:30:43;;;;;;;14.00;3.42;;;5.50;99.90;;;;;;4936616;28;20049;-84
2024/01/27 02:33:08;;;;;;;18.67;3.25;;;5.40;99.90;;;;;;4949498;28;20034;-82
2024/01/27 02:35:34;;;;;;;14.73;3.53;;;5.40;99.90;;;;;;4933019;28;20045;-84
2024/01/27 02:37:59;;;;;;;13.13;3.88;;;5.40;99.90;;;;;;4961270;28;20042;-84
2024/01/27 02:40:25;;;;;;;21.35;3.30;;;5.40;99.90;;;;;;4940071;28;20061;-84
2024/01/27 02:42:51;;;;;;;19.90;3.22;;;5.40;99.90;;;;;;4942389;28;20044;-83
2024/01/27 02:45:16;;;;;;;18.65;3.67;;;5.40;99.90;;;;;;4946571;28;20045;-80
2024/01/27 02:47:42;;;;;;;18.98;2.50;;;5.40;99.90;;;;;;4959360;28;20065;-84
2024/01/27 02:50:08;;;;;;;19.02;2.90;;;5.30;99.90;;;;;;4970374;28;20033;-84
2024/01/27 02:52:34;;;;;;;19.48;3.13;;;5.30;99.90;;;;;;4940773;28;20462;-85
2024/01/27 02:55:00;;;;;;;15.48;3.55;;;5.30;99.90;;;;;;4935232;28;20438;-82
2024/01/27 02:57:26;;;;;;;15.32;4.28;;;5.30;99.90;;;;;;4934585;28;20030;-84
2024/01/27 02:59:52;;;;;;;20.00;3.50;;;5.30;99.90;;;;;;4962381;28;20037;-84
2024/01/27 03:02:17;;;;;;;14.50;4.07;;;5.30;99.90;;;;;;4962289;28;20019;-83
2024/01/27 03:04:43;;;;;;;19.38;3.85;;;5.30;99.90;;;;;;4934928;28;20470;-80
2024/01/27 03:07:09;;;;;;;19.08;3.10;;;5.30;99.90;;;;;;4939501;28;20101;-84
2024/01/27 03:09:34;;;;;;;11.32;3.22;;;5.20;99.90;;;;;;4932588;28;21521;-83
2024/01/27 03:12:00;;;;;;;17.80;3.53;;;5.30;99.90;;;;;;4956049;28;20150;-84
2024/01/27 03:14:26;;;;;;;17.58;3.78;;;5.20;99.90;;;;;;4948723;28;20019;-79
2024/01/27 03:16:52;;;;;;;20.13;3.90;;;5.20;99.90;;;;;;4957869;28;20073;-84
2024/01/27 03:19:17;;;;;;;18.45;2.72;;;5.20;99.90;;;;;;4927492;28;20030;-83
2024/01/27 03:21:43;;;;;;;16.95;2.97;;;5.20;99.90;;;;;;4927952;28;20038;-84
2024/01/27 03:24:09;;;;;;;14.38;3.25;;;5.20;99.90;;;;;;4962653;28;20037;-84
2024/01/27 03:26:34;;;;;;;15.27;3.28;;;5.20;99.90;;;;;;4933629;28;20301;-83
2024/01/27 03:29:00;;;;;;;17.80;3.60;;;5.20;99.90;;;;;;4963717;28;20072;-84
2024/01/27 03:31:33;;;;;;;23.35;4.07;;;5.10;99.90;;;;;;4938460;28;20034;-85
2024/01/27 03:34:00;;;;;;;17.73;3.88;;;5.20;99.90;;;;;;4931380;28;20055;-84
2024/01/27 03:36:26;;;;;;;17.20;3.65;;;5.10;99.90;;;;;;4946188;28;20022;-85
2024/01/27 03:38:51;;;;;;;17.63;3.70;;;5.10;99.90;;;;;;4961955;28;20557;-84
2024/01/27 03:41:17;;;;;;;13.32;2.70;;;5.10;99.90;;;;;;4962675;28;20029;-82
2024/01/27 03:43:43;;;;;;;16.77;3.42;;;5.10;99.90;;;;;;4920212;28;20522;-81
2024/01/27 03:46:08;;;;;;;28.42;4.05;;;5.10;99.90;;;;;;4926553;28;20069;-84
2024/01/27 03:48:36;;;;;;;11.90;2.97;;;5.10;99.90;;;;;;4932639;28;21181;-84
2024/01/27 03:51:02;;;;;;;20.55;3.38;;;5.10;99.90;;;;;;4950364;28;20023;-84
2024/01/27 03:53:36;;;;;;;22.48;4.20;;;5.10;99.90;;;;;;4943655;28;20064;-81
2024/01/27 03:56:04;;;;;;;23.77;3.30;;;5.00;99.90;;;;;;4957720;28;20030;-83
2024/01/27 03:58:29;;;;;;;15.75;3.38;;;5.00;99.90;;;;;;4939146;28;20042;-84
2024/01/27 04:00:56;;;;;;;19.33;3.42;;;5.00;99.90;;;;;;4935395;28;20061;-83
2024/01/27 04:03:22;;;;;;;20.75;3.80;;;5.00;99.90;;;;;;4934463;28;20113;-84
2024/01/27 04:05:48;;;;;;;17.73;3.88;;;5.00;99.90;;;;;;4952455;28;20142;-84
2024/01/27 04:08:13;;;;;;;14.60;3.22;;;5.00;99.90;;;;;;4961931;28;20537;-84
2024/01/27 04:10:39;;;;;;;17.70;3.25;;;4.90;99.90;;;;;;4940486;28;20062;-85
2024/01/27 04:13:05;;;;;;;15.48;3.72;;;4.90;99.90;;;;;;4930347;28;20042;-84
2024/01/27 04:15:38;;;;;;;13.35;2.78;;;4.90;99.90;;;;;;4937459;28;21603;-82
2024/01/27 04:18:11;;;;;;;24.48;4.05;;;4.90;99.90;;;;;;4961532;28;20022;-84
2024/01/27 04:20:37;;;;;;;15.77;3.47;;;4.90;99.90;;;;;;4935229;28;20030;-84
2024/01/27 04:23:02;;;;;;;17.77;3.28;;;4.90;99.90;;;;;;4962160;28;21447;-83
2024/01/27 04:25:28;;;;;;;26.90;4.53;;;4.90;99.90;;;;;;4930932;28;20019;-84
2024/01/27 04:27:54;;;;;;;17.00;2.83;;;4.90;99.90;;;;;;4920226;28;20022;-84
2024/01/27 04:30:19;;;;;;;17.00;3.05;;;4.90;99.90;;;;;;4929457;28;20507;-81
2024/01/27 04:32:45;;;;;;;17.27;2.95;;;4.90;99.90;;;;;;4958687;28;20030;-85
2024/01/27 04:35:12;;;;;;;14.52;3.35;;;4.90;99.90;;;;;;4968028;28;20434;-85
2024/01/27 04:37:38;;;;;;;18.02;3.33;;;4.90;99.90;;;;;;4950866;28;20085;-84
2024/01/27 04:40:05;;;;;;;21.70;3.28;;;4.90;99.90;;;;;;4918148;28;20030;-84
2024/01/27 04:42:33;;;;;;;23.95;4.00;;;4.90;99.90;;;;;;4934630;28;21473;-84
2024/01/27 04:44:59;;;;;;;20.95;3.40;;;4.90;99.90;;;;;;4963629;28;20019;-85
2024/01/27 04:47:24;;;;;;;23.55;3.65;;;4.90;99.90;;;;;;4957090;28;20117;-81
2024/01/27 04:49:50;;;;;;;20.13;4.15;;;4.90;99.90;;;;;;4943229;28;20037;-84
2024/01/27 04:52:16;;;;;;;11.55;3.85;;;4.90;99.90;;;;;;4940726;28;20022;-84
2024/01/27 04:54:41;;;;;;;14.00;3.80;;;4.90;99.90;;;;;;4923161;28;20056;-85
2024/01/27 04:57:07;;;;;;;21.63;3.90;;;4.90;99.90;;;;;;4966199;28;20049;-86
2024/01/27 04:59:32;;;;;;;14.90;3.08;;;4.90;99.90;;;;;;4936891;28;20029;-81
2024/01/27 05:01:58;;;;;;;14.73;2.78;;;4.90;99.90;;;;;;4955242;28;20149;-85
2024/01/27 05:04:26;;;;;;;21.55;3.38;;;4.90;99.90;;;;;;4928454;28;20023;-84
2024/01/27 05:06:52;;;;;;;15.90;3.50;;;4.80;99.90;;;;;;4929748;28;20038;-84
2024/01/27 05:09:17;;;;;;;17.58;3.65;;;4.90;99.90;;;;;;4934905;28;20019;-81
2024/01/27 05:11:45;;;;;;;15.40;3.80;;;4.90;99.90;;;;;;4943897;28;21736;-84
2024/01/27 05:14:11;;;;;;;12.52;3.03;;;4.80;99.90;;;;;;4957829;28;20274;-82
2024/01/27 05:16:37;;;;;;;11.18;3.50;;;4.80;99.90;;;;;;4933911;28;20033;-84
2024/01/27 05:19:02;;;;;;;18.48;3.70;;;4.80;99.90;;;;;;4921925;28;20061;-85
2024/01/27 05:21:28;;;;;;;16.63;2.95;;;4.80;99.90;;;;;;4917071;28;20022;-84
2024/01/27 05:23:54;;;;;;;25.42;5.25;;;4.70;99.90;;;;;;4953752;28;20109;-84
2024/01/27 05:26:20;;;;;;;12.35;3.17;;;4.70;99.90;;;;;;4958573;28;20454;-84
2024/01/27 05:28:46;;;;;;;13.15;2.92;;;4.70;99.90;;;;;;4922541;28;20065;-79
2024/01/27 05:31:11;;;;;;;19.38;3.78;;;4.70;99.90;;;;;;4937401;28;20026;-85
2024/01/27 05:33:39;;;;;;;14.90;2.90;;;4.70;99.90;;;;;;4938268;28;20653;-85
2024/01/27 05:36:05;;;;;;;18.77;3.05;;;4.70;99.90;;;;;;4955064;28;20052;-84
2024/01/27 05:38:31;;;;;;;13.40;2.80;;;4.70;99.90;;;;;;4923934;28;20049;-80
2024/01/27 05:41:00;;;;;;;10.27;2.95;;;4.60;99.90;;;;;;4955366;28;20019;-84
2024/01/27 05:43:26;;;;;;;20.30;3.90;;;4.60;99.90;;;;;;4943504;28;20022;-85
2024/01/27 05:45:51;;;;;;;15.82;3.17;;;4.60;99.90;;;;;;4938883;28;20022;-83
2024/01/27 05:48:20;;;;;;;18.30;3.42;;;4.60;99.90;;;;;;4950262;28;20034;-79
2024/01/27 05:50:56;;;;;;;15.57;3.72;;;4.60;99.90;;;;;;4965617;28;20027;-83
2024/01/27 05:53:21;;;;;;;10.88;2.95;;;4.60;99.90;;;;;;4969642;28;20042;-84
2024/01/27 05:55:47;;;;;;;19.58;3.38;;;4.60;99.90;;;;;;4934219;28;20399;-85
2024/01/27 05:58:13;;;;;;;14.13;3.20;;;4.50;99.90;;;;;;4946084;28;20045;-85
2024/01/27 06:00:38;;;;;;;11.63;3.15;;;4.40;99.90;;;;;;4927605;28;21659;-85
2024/01/27 06:03:04;;;;;;;19.90;3.72;;;4.40;99.90;;;;;;4973247;28;20360;-84
2024/01/27 06:05:29;;;;;;;16.90;3.13;;;4.40;99.90;;;;;;4940159;28;20027;-79
2024/01/27 06:07:55;;;;;;;12.10;3.03;;;4.40;99.90;;;;;;4946930;28;20026;-84
2024/01/27 06:10:21;;;;;;;14.57;3.17;;;4.40;99.90;;;;;;4944935;28;20022;-84
2024/01/27 06:12:46;;;;;;;13.38;3.67;;;4.40;99.90;;;;;;4946248;28;20026;-85
2024/01/27 06:15:12;;;;;;;20.45;4.15;;;4.40;99.90;;;;;;4968075;28;20031;-81
2024/01/27 06:17:38;;;;;;;17.17;3.63;;;4.40;99.90;;;;;;4937466;28;20022;-84
2024/01/27 06:20:04;;;;;;;15.77;3.80;;;4.30;99.90;;;;;;4965485;28;20034;-84
2024/01/27 06:22:32;;;;;;;12.88;3.75;;;4.30;99.90;;;;;;4940098;28;20026;-82
2024/01/27 06:24:58;;;;;;;14.60;3.97;;;4.30;99.90;;;;;;4938267;28;20053;-83
2024/01/27 06:27:23;;;;;;;12.80;2.67;;;4.30;99.90;;;;;;4924445;28;20483;-83
2024/01/27 06:29:49;;;;;;;12.77;3.60;;;4.30;99.90;;;;;;4944641;28;21599;-84
2024/01/27 06:32:15;;;;;;;15.95;3.08;;;4.20;99.90;;;;;;4943466;28;20084;-84
2024/01/27 06:34:41;;;;;;;17.08;3.65;;;4.20;99.90;;;;;;4921760;28;20038;-84
2024/01/27 06:37:06;;;;;;;22.38;3.10;;;4.20;99.90;;;;;;4915791;28;20036;-81
2024/01/27 06:39:32;;;;;;;16.40;3.40;;;4.20;99.90;;;;;;4926603;28;21250;-81
2024/01/27 06:41:58;;;;;;;17.13;3.15;;;4.10;99.90;;;;;;4983841;28;20113;-83
2024/01/27 06:44:23;;;;;;;10.05;2.65;;;4.10;99.90;;;;;;4947147;28;20029;-81
2024/01/27 06:46:50;;;;;;;12.35;2.95;;;4.00;99.90;;;;;;4959107;28;20037;-82
2024/01/27 06:49:16;;;;;;;16.92;3.13;;;4.00;99.90;;;;;;4958499;28;20053;-82
2024/01/27 06:51:43;;;;;;;10.25;2.72;;;3.90;99.90;;;;;;4951757;28;20081;-81
2024/01/27 06:54:08;;;;;;;14.82;3.03;;;3.80;99.90;;;;;;4985737;28;20038;-81
2024/01/27 06:56:34;;;;;;;14.38;3.35;;;3.80;99.90;;;;;;4947683;28;20041;-81
2024/01/27 06:58:59;;;;;;;18.55;3.10;;;3.70;99.90;;;;;;4938906;28;20035;-82
2024/01/27 07:01:25;;;;;;;10.18;2.80;;;3.70;99.90;;;;;;4940231;28;20029;-81
2024/01/27 07:03:50;;;;;;;21.38;3.58;;;3.70;99.90;;;;;;4945924;28;20029;-82
2024/01/27 07:06:16;;;;;;;13.45;2.67;;;3.60;99.90;;;;;;4971186;28;20023;-80
2024/01/27 07:08:41;;;;;;;18.23;2.97;;;3.60;99.90;;;;;;4969250;28;20038;-82
2024/01/27 07:11:07;;;;;;;11.55;3.17;;;3.60;99.90;;;;;;4928929;28;20156;-83
2024/01/27 07:13:33;;;;;;;15.57;3.70;;;3.60;99.90;;;;;;4953908;28;20034;-81
2024/01/27 07:15:58;;;;;;;21.30;3.40;;;3.50;99.90;;;;;;4956018;28;20513;-83
2024/01/27 07:18:24;;;;;;;19.23;2.65;;;3.40;99.90;;;;;;4947711;28;20458;-80
2024/01/27 07:20:51;;;;;;;15.73;2.92;;;3.40;99.90;;;;;;4979857;28;20018;-81
2024/01/27 07:23:17;;;;;;;11.50;2.88;;;3.40;99.90;;;;;;4951675;28;20030;-81
2024/01/27 07:25:43;;;;;;;14.20;2.60;;;3.40;99.90;;;;;;4951060;28;20514;-79
2024/01/27 07:28:08;;;;;;;13.98;3.50;;;3.30;99.90;;;;;;4949236;28;20037;-81
2024/01/27 07:30:34;;;;;;;13.02;2.78;;;3.30;99.90;;;;;;4933536;28;20038;-81
2024/01/27 07:32:59;;;;;;;9.52;2.75;;;3.30;99.90;;;;;;4995720;28;20059;-82
2024/01/27 07:35:25;;;;;;;11.70;3.38;;;3.30;99.90;;;;;;4946275;28;20034;-81
2024/01/27 07:37:50;;;;;;;15.82;3.22;;;3.20;99.90;;;;;;4942040;28;20616;-81
2024/01/27 07:40:16;;;;;;;17.42;2.92;;;3.20;99.90;;;;;;4952086;28;20064;-80
2024/01/27 07:42:42;;;;;;;15.02;2.63;;;3.20;99.90;;;;;;4947594;28;20054;-81
2024/01/27 07:45:08;;;;;;;13.73;3.05;;;3.20;99.90;;;;;;4990629;28;20061;-81
2024/01/27 07:47:34;;;;;;;17.17;3.33;;;3.20;99.90;;;;;;4941521;28;20458;-81
2024/01/27 07:50:00;;;;;;;10.68;3.35;;;3.20;99.90;;;;;;4943457;28;20061;-81
2024/01/27 07:52:25;;;;;;;10.00;2.75;;;3.30;99.90;;;;;;4943288;28;20028;-81
2024/01/27 07:54:51;;;;;;;16.73;2.97;;;3.30;99.90;;;;;;4932836;28;20805;-81
2024/01/27 07:57:16;;;;;;;12.25;2.75;;;3.30;99.90;;;;;;4989309;28;20031;-81
2024/01/27 07:59:42;;;;;;;8.45;2.72;;;3.30;99.90;;;;;;4961674;28;20026;-82
2024/01/27 08:02:07;;;;;;;11.57;2.97;;;3.30;99.90;;;;;;4962912;28;20022;-82
2024/01/27 08:04:33;;;;;;;11.20;3.58;;;3.40;99.90;;;;;;4960056;28;20034;-81
2024/01/27 08:06:58;;;;;;;11.25;2.70;;;3.40;99.90;;;;;;4956262;28;20037;-81
2024/01/27 08:09:25;;;;;;;14.48;3.25;;;3.40;99.90;;;;;;4977050;28;20018;-79
2024/01/27 08:11:52;;;;;;;15.60;2.92;;;3.40;99.90;;;;;;4955396;28;20027;-83
2024/01/27 08:14:18;;;;;;;13.95;3.30;;;3.40;99.90;;;;;;4942613;28;20093;-82
2024/01/27 08:16:44;;;;;;;15.35;3.08;;;3.40;99.90;;;;;;4953463;28;21184;-79
2024/01/27 08:19:09;;;;;;;13.35;3.90;;;3.40;99.90;;;;;;4949028;28;20493;-81
2024/01/27 08:21:35;;;;;;;15.57;3.50;;;3.50;99.90;;;;;;4939487;28;20018;-82
2024/01/27 08:24:00;;;;;;;12.95;2.53;;;3.50;99.90;;;;;;4976800;28;20105;-82
2024/01/27 08:26:26;;;;;;;5.40;2.38;;;3.50;99.90;;;;;;4945108;28;20042;-81
2024/01/27 08:28:51;;;;;;;12.18;2.40;;;3.60;99.90;;;;;;4940047;28;20401;-82
2024/01/27 08:31:17;;;;;;;9.30;2.75;;;3.60;99.90;;;;;;4942315;28;20030;-79
2024/01/27 08:33:43;;;;;;;14.85;2.97;;;3.60;99.90;;;;;;4955265;28;20045;-82
2024/01/27 08:36:14;;;;;;;17.15;3.13;;;3.60;99.90;;;;;;4969691;28;20034;-82
2024/01/27 08:38:39;;;;;;;8.05;2.83;;;3.60;99.90;;;;;;4941729;28;20058;-82
2024/01/27 08:41:05;;;;;;;9.65;2.60;;;3.60;99.90;;;;;;4941585;28;20287;-83
2024/01/27 08:43:30;;;;;;;12.30;3.35;;;3.70;99.90;;;;;;4943435;28;20065;-83
2024/01/27 08:45:56;;;;;;;20.08;3.38;;;3.70;99.90;;;;;;4961164;28;20042;-83
2024/01/27 08:48:22;;;;;;;9.90;2.63;;;3.70;99.90;;;;;;4973582;28;20030;-80
2024/01/27 08:50:47;;;;;;;10.48;2.75;;;3.70;99.90;;;;;;4954116;28;20037;-83
2024/01/27 08:53:13;;;;;;;13.55;2.80;;;3.70;99.90;;;;;;4938775;28;20023;-84
2024/01/27 08:55:38;;;;;;;14.88;3.58;;;3.80;99.90;;;;;;4931516;28;20052;-83
2024/01/27 08:58:04;;;;;;;10.95;2.17;;;3.70;99.90;;;;;;4956169;28;20033;-83
2024/01/27 09:00:30;;;;;;;9.82;2.38;;;3.80;99.90;;;;;;4937884;28;20030;-80
2024/01/27 09:02:56;;;;;;;11.80;2.58;;;3.80;99.90;;;;;;4963628;28;20585;-83
2024/01/27 09:05:21;;;;;;;7.03;2.50;;;3.90;99.90;;;;;;4935756;28;20057;-82
2024/01/27 09:07:47;;;;;;;15.40;3.55;;;3.90;99.90;;;;;;4936267;28;20033;-83
2024/01/27 09:10:15;;;;;;;11.32;3.28;;;3.90;99.90;;;;;;4958492;28;20072;-79
2024/01/27 09:12:41;;;;;;;10.82;2.75;;;4.00;99.90;;;;;;4943315;28;20022;-83
2024/01/27 09:15:07;;;;;;;16.15;3.13;;;4.00;99.90;;;;;;4960499;28;20149;-82
2024/01/27 09:17:32;;;;;;;16.15;3.30;;;4.00;99.90;;;;;;4936677;28;20487;-83
2024/01/27 09:19:58;;;;;;;16.38;3.42;;;4.00;99.90;;;;;;4925968;28;20018;-84
2024/01/27 09:22:23;;;;;;;17.65;2.50;;;4.00;99.90;;;;;;4946945;28;20057;-83
2024/01/27 09:24:50;;;;;;;10.35;3.08;;;4.00;99.90;;;;;;4968099;28;20065;-83
2024/01/27 09:27:16;;;;;;;19.67;3.78;;;4.10;99.90;;;;;;4966122;28;20030;-83
2024/01/27 09:29:42;;;;;;;11.95;3.25;;;4.10;99.90;;;;;;4940210;28;20026;-83
2024/01/27 09:32:08;;;;;;;6.90;2.38;;;4.20;99.90;;;;;;4936079;28;20040;-83
2024/01/27 09:34:34;;;;;;;9.88;2.80;;;4.30;99.90;;;;;;4931727;28;20042;-83
2024/01/27 09:37:00;;;;;;;11.20;2.42;;;4.30;99.90;;;;;;4946724;28;20034;-84
2024/01/27 09:39:25;;;;;;;10.98;3.63;;;4.40;99.90;;;;;;4968013;28;20094;-80
2024/01/27 09:41:52;;;;;;;7.18;2.72;;;4.50;99.90;;;;;;4922629;28;20061;-83
2024/01/27 09:44:19;;;;;;;16.08;3.70;;;4.50;99.90;;;;;;4887231;28;20085;-81
2024/01/27 09:46:47;;;;;;;16.65;3.15;;;4.60;99.90;;;;;;4863376;28;20030;-83
2024/01/27 09:49:18;;;;;;;10.40;2.22;;;4.70;99.90;;;;;;4965450;28;20034;-80
2024/01/27 09:51:44;;;;;;;9.95;2.80;;;4.70;99.90;;;;;;4909927;28;20148;-83
2024/01/27 09:54:09;;;;;;;18.83;3.42;;;4.70;99.90;;;;;;4928323;28;20058;-83
2024/01/27 09:56:35;;;;;;;10.13;3.10;;;4.80;99.90;;;;;;4893636;28;20033;-83
2024/01/27 09:59:01;;;;;;;12.60;2.47;;;4.90;99.90;;;;;;4872781;28;20027;-83
2024/01/27 10:01:28;;;;;;;10.13;2.60;;;4.90;99.90;;;;;;4900072;28;20134;-83
2024/01/27 10:03:54;;;;;;;14.63;3.25;;;4.90;99.90;;;;;;4950166;28;20034;-83
2024/01/27 10:06:21;;;;;;;10.95;2.03;;;5.00;99.90;;;;;;4934681;28;20026;-83
2024/01/27 10:08:54;;;;;;;18.45;3.40;;;5.10;99.90;;;;;;4878690;28;20125;-80
2024/01/27 10:11:20;;;;;;;11.98;2.60;;;5.10;99.90;;;;;;4902230;28;20030;-84
2024/01/27 10:13:57;;;;;;;9.50;2.28;;;5.20;99.90;;;;;;4930465;28;20062;-83
2024/01/27 10:16:23;;;;;;;5.35;2.05;;;5.20;99.90;;;;;;4932078;28;20101;-82
2024/01/27 10:19:00;;;;;;;12.88;2.20;;;5.30;99.90;;;;;;4967328;28;22156;-85
2024/01/27 10:21:27;;;;;;;12.10;2.63;;;5.30;99.90;;;;;;4946641;28;20027;-80
2024/01/27 10:23:52;;;;;;;10.75;2.42;;;5.40;99.90;;;;;;4916302;28;20057;-82
2024/01/27 10:26:18;;;;;;;10.52;2.40;;;5.50;99.90;;;;;;4882387;28;20645;-81
2024/01/27 10:28:53;;;;;;;13.60;2.47;;;5.50;99.90;;;;;;4864928;28;20039;-83
2024/01/27 10:31:23;;;;;;;7.18;2.45;;;5.60;99.90;;;;;;4886666;28;20038;-80
2024/01/27 10:33:53;;;;;;;8.27;2.67;;;5.60;99.90;;;;;;4966302;28;22027;-83
2024/01/27 10:36:19;;;;;;;10.25;2.70;;;5.60;99.90;;;;;;4934242;28;20119;-82
2024/01/27 10:38:45;;;;;;;10.00;2.78;;;5.60;99.90;;;;;;4861629;28;20031;-80
2024/01/27 10:41:11;;;;;;;12.52;2.53;;;5.70;99.90;;;;;;4875369;28;20039;-82
2024/01/27 10:43:38;;;;;;;9.13;2.50;;;5.80;99.90;;;;;;4872894;28;21400;-83
2024/01/27 10:46:06;;;;;;;12.05;2.78;;;5.80;99.90;;;;;;4921852;28;20053;-81
2024/01/27 10:48:37;;;;;;;10.65;2.40;;;5.90;99.90;;;;;;4870074;28;20044;-79
2024/01/27 10:51:10;;;;;;;7.93;2.47;;;5.90;99.90;;;;;;4932843;28;20524;-83
2024/01/27 10:53:37;;;;;;;9.20;2.38;;;6.10;99.90;;;;;;4864344;28;20113;-82
2024/01/27 10:56:08;;;;;;;10.32;3.08;;;6.10;99.90;;;;;;4870030;28;20050;-83
2024/01/27 10:58:40;;;;;;;8.98;2.55;;;6.10;99.90;;;;;;4877278;28;21423;-83
2024/01/27 11:01:10;;;;;;;7.35;1.75;;;6.20;99.90;;;;;;4932016;28;20090;-84
2024/01/27 11:03:38;;;;;;;9.88;2.28;;;6.20;99.90;;;;;;4867921;28;20109;-83
2024/01/27 11:06:05;;;;;;;12.27;2.78;;;6.30;99.90;;;;;;4926005;28;21356;-83
2024/01/27 11:08:31;;;;;;;12.95;2.75;;;6.40;99.90;;;;;;4890832;28;20026;-83
2024/01/27 11:10:58;;;;;;;10.65;2.50;;;6.40;99.90;;;;;;4910312;28;20039;-83
2024/01/27 11:13:25;;;;;;;13.95;3.15;;;6.50;99.90;;;;;;4922276;28;20030;-80
2024/01/27 11:15:54;;;;;;;9.98;2.72;;;6.50;99.90;;;;;;4962628;28;22503;-81
2024/01/27 11:18:20;;;;;;;13.77;3.05;;;6.50;99.90;;;;;;4958089;28;20301;-82
2024/01/27 11:20:46;;;;;;;11.80;2.83;;;6.50;99.90;;;;;;4894205;28;20023;-81
2024/01/27 11:23:15;;;;;;;8.80;3.13;;;6.50;99.90;;;;;;4920120;28;20029;-82
2024/01/27 11:25:41;;;;;;;13.02;3.17;;;6.40;99.90;;;;;;4930231;28;20035;-82
2024/01/27 11:28:17;;;;;;;12.93;3.22;;;6.50;99.90;;;;;;4945087;28;20049;-81
2024/01/27 11:30:49;;;;;;;3.38;1.92;;;6.50;99.90;;;;;;4919539;28;20064;-82
2024/01/27 11:33:15;;;;;;;11.48;2.78;;;6.60;99.90;;;;;;4951942;28;20054;-82
2024/01/27 11:35:41;;;;;;;13.07;3.03;;;6.60;99.90;;;;;;4932646;28;20050;-81
2024/01/27 11:38:06;;;;;;;9.18;2.22;;;6.70;99.90;;;;;;4906533;28;20698;-80
2024/01/27 11:40:32;;;;;;;10.50;2.30;;;6.70;99.90;;;;;;4843199;28;20542;-82
2024/01/27 11:43:02;;;;;;;11.80;3.08;;;6.70;99.90;;;;;;4926989;28;20467;-82
2024/01/27 11:45:30;;;;;;;10.43;2.10;;;6.60;99.90;;;;;;4890944;28;20037;-80
2024/01/27 11:47:56;;;;;;;6.28;2.10;;;6.60;99.90;;;;;;4875289;28;20043;-83
2024/01/27 11:50:22;;;;;;;3.50;2.40;;;6.60;99.90;;;;;;4877463;28;20111;-83
2024/01/27 11:52:48;;;;;;;5.68;2.28;;;6.60;99.90;;;;;;4859459;28;20030;-83
2024/01/27 11:55:18;;;;;;;5.68;2.33;;;6.70;99.90;;;;;;4946751;28;20129;-79
2024/01/27 11:57:44;;;;;;;12.93;3.50;;;6.60;99.90;;;;;;4950909;28;20035;-80
2024/01/27 12:00:10;;;;;;;10.50;2.38;;;6.70;99.90;;;;;;4924837;28;20035;-83
2024/01/27 12:02:40;;;;;;;7.60;2.33;;;6.70;99.90;;;;;;4935149;28;20026;-81
2024/01/27 12:05:06;;;;;;;12.75;2.40;;;6.70;99.90;;;;;;4935811;28;20037;-83
2024/01/27 12:07:32;;;;;;;10.00;3.30;;;6.70;99.90;;;;;;4922084;28;20112;-84
2024/01/27 12:09:58;;;;;;;13.75;2.63;;;6.70;99.90;;;;;;4959762;28;20045;-84
2024/01/27 12:12:24;;;;;;;11.57;2.60;;;6.70;99.90;;;;;;4955747;28;20030;-81
2024/01/27 12:14:50;;;;;;;11.98;2.78;;;6.70;99.90;;;;;;4932993;28;20030;-82
2024/01/27 12:17:18;;;;;;;15.23;2.70;;;6.70;99.90;;;;;;4932173;28;20098;-81
2024/01/27 12:19:53;;;;;;;7.90;2.53;;;6.70;99.90;;;;;;4935875;28;20044;-82
2024/01/27 12:22:25;;;;;;;4.35;1.77;;;6.70;99.90;;;;;;4950076;28;20029;-78
2024/01/27 12:24:51;;;;;;;11.93;2.63;;;6.80;99.90;;;;;;4970252;28;21883;-82
2024/01/27 12:27:17;;;;;;;8.30;2.25;;;6.80;99.90;;;;;;4946952;28;20398;-80
2024/01/27 12:29:43;;;;;;;9.15;2.35;;;6.70;99.90;;;;;;4935261;28;20040;-81
2024/01/27 12:32:09;;;;;;;10.75;2.50;;;6.70;99.90;;;;;;4898252;28;20100;-82
2024/01/27 12:34:40;;;;;;;7.28;2.22;;;6.60;99.90;;;;;;4889277;28;21829;-82
2024/01/27 12:37:08;;;;;;;9.88;3.05;;;6.60;99.90;;;;;;4939946;28;20030;-81
2024/01/27 12:39:33;;;;;;;13.20;2.58;;;6.60;99.90;;;;;;4847043;28;20031;-81
2024/01/27 12:41:59;;;;;;;6.75;2.13;;;6.70;99.90;;;;;;4922705;28;20130;-82
2024/01/27 12:44:24;;;;;;;13.02;3.30;;;6.70;99.90;;;;;;4886470;28;20038;-82